Time;durP1;ratioP1;P1;durP2;ratioP2;P2;SDS_P1;SDS_P2;PMS_P1;PMS_P2;Temp;Humidity;BMP_temperature;BMP_pressure;BME280_temperature;BME280_humidity;BME280_pressure;Samples;Min_cycle;Max_cycle;Signal;HPM_P1;HPM_P2
2021/12/08 17:46:46;;;;;;;17.48;2.63;;;;;;;;;;5065894;28;20383;-68
2021/12/08 17:49:12;;;;;;;13.68;2.85;;;;;;;;;;5068001;28;20421;-66
2021/12/08 17:51:38;;;;;;;7.28;1.83;;;;;;;;;;5067756;28;20025;-66
2021/12/08 17:54:06;;;;;;;17.42;3.20;;;;;;;;;;5067267;28;20017;-66
2021/12/08 17:56:33;;;;;;;22.17;4.40;;;;;;;;;;5067848;28;20033;-66
2021/12/08 17:59:02;;;;;;;21.73;6.68;;;;;;;;;;5068095;28;20032;-66
2021/12/08 18:01:28;;;;;;;22.98;5.32;;;;;;;;;;5066783;28;20223;-66
2021/12/08 18:03:54;;;;;;;24.70;6.00;;;;;;;;;;5066664;28;20013;-67
2021/12/08 18:06:20;;;;;;;25.90;5.55;;;;;;;;;;5066817;28;20025;-67
2021/12/08 18:08:46;;;;;;;22.45;6.05;;;;;;;;;;5066721;28;20028;-67
2021/12/08 18:11:13;;;;;;;20.92;6.22;;;;;;;;;;5085973;28;20028;-67
2021/12/08 18:13:39;;;;;;;31.92;10.65;;;;;;;;;;5086923;28;20024;-67
2021/12/08 18:16:05;;;;;;;65.45;23.25;;;;;;;;;;5067856;28;20032;-67
2021/12/08 18:18:31;;;;;;;88.50;30.50;;;;;;;;;;5067060;28;20021;-66
2021/12/08 18:20:59;;;;;;;142.10;45.47;;;;;;;;;;5067184;28;20081;-66
2021/12/08 18:23:25;;;;;;;66.13;22.50;;;;;;;;;;5066597;28;20032;-66
2021/12/08 18:25:53;;;;;;;35.67;12.80;;;;;;;;;;5066385;28;20029;-67
2021/12/08 18:28:19;;;;;;;29.88;13.77;;;;;;;;;;5065344;28;20017;-67
2021/12/08 18:30:46;;;;;;;30.10;10.38;;;;;;;;;;5084913;28;20393;-67
2021/12/08 18:33:12;;;;;;;30.45;10.75;;;;;;;;;;5086707;28;20107;-67
2021/12/08 18:38:15;;;;;;;23.48;7.95;;;;;;;;;;5086696;28;20494;-66
2021/12/08 18:40:42;;;;;;;47.47;11.35;;;;;;;;;;5085272;28;20054;-66
2021/12/08 18:43:08;;;;;;;20.95;6.72;;;;;;;;;;5086438;28;20045;-66
2021/12/08 18:45:35;;;;;;;27.00;8.93;;;;;;;;;;5086565;28;20044;-66
2021/12/08 18:48:01;;;;;;;28.05;9.20;;;;;;;;;;5086661;28;20016;-66
2021/12/08 18:50:28;;;;;;;23.30;7.80;;;;;;;;;;5068743;28;20099;-65
2021/12/08 18:52:56;;;;;;;29.00;8.85;;;;;;;;;;5056393;28;20029;-66
2021/12/08 18:55:22;;;;;;;25.63;10.90;;;;;;;;;;5048612;28;20033;-66
2021/12/08 18:57:49;;;;;;;31.00;10.27;;;;;;;;;;5055274;28;20029;-67
2021/12/08 19:00:16;;;;;;;51.33;18.50;;;;;;;;;;5056468;28;20503;-67
2021/12/08 19:02:43;;;;;;;47.40;19.70;;;;;;;;;;5053072;28;20029;-67
2021/12/08 19:05:09;;;;;;;22.58;9.38;;;;;;;;;;5064578;28;20042;-67
2021/12/08 19:07:36;;;;;;;88.93;41.47;;;;;;;;;;5070709;28;20165;-67
2021/12/08 19:10:04;;;;;;;32.95;12.00;;;;;;;;;;5054506;28;20048;-67
2021/12/08 19:12:30;;;;;;;23.60;7.90;;;;;;;;;;5052473;28;20032;-66
2021/12/08 19:14:56;;;;;;;33.60;9.10;;;;;;;;;;5053569;28;20029;-66
2021/12/08 19:17:23;;;;;;;36.95;13.20;;;;;;;;;;5051698;28;20480;-66
2021/12/08 19:19:49;;;;;;;33.35;6.97;;;;;;;;;;5060035;28;20037;-68
2021/12/08 19:22:15;;;;;;;33.50;10.68;;;;;;;;;;5056886;28;20025;-68
2021/12/08 19:24:45;;;;;;;40.03;9.43;;;;;;;;;;5052373;28;20021;-68
2021/12/08 19:27:11;;;;;;;29.42;10.75;;;;;;;;;;5052399;28;20028;-68
2021/12/08 19:29:37;;;;;;;28.60;11.82;;;;;;;;;;5055698;28;20025;-68
2021/12/08 19:32:04;;;;;;;30.98;12.60;;;;;;;;;;5061315;28;20029;-68
2021/12/08 19:34:34;;;;;;;130.68;65.97;;;;;;;;;;5052004;28;20036;-70
2021/12/08 19:37:00;;;;;;;59.38;27.83;;;;;;;;;;5063410;28;20602;-68
2021/12/08 19:39:26;;;;;;;89.00;31.88;;;;;;;;;;5056065;28;20027;-69
2021/12/08 19:41:53;;;;;;;60.03;20.48;;;;;;;;;;5051499;28;20365;-69
2021/12/08 19:44:19;;;;;;;34.38;10.80;;;;;;;;;;5050780;28;20021;-69
2021/12/08 19:46:45;;;;;;;31.27;11.15;;;;;;;;;;5063507;28;20020;-68
2021/12/08 19:49:13;;;;;;;25.92;7.38;;;;;;;;;;5071458;28;20020;-68
2021/12/08 19:51:43;;;;;;;28.90;11.38;;;;;;;;;;5065594;28;20066;-68
2021/12/08 19:54:10;;;;;;;38.10;11.95;;;;;;;;;;5051397;28;20036;-68
2021/12/08 19:56:36;;;;;;;24.35;8.30;;;;;;;;;;5051732;28;20549;-69
2021/12/08 19:59:02;;;;;;;34.25;9.02;;;;;;;;;;5060956;28;20484;-69
2021/12/08 20:01:29;;;;;;;24.38;7.00;;;;;;;;;;5070762;28;20395;-68
2021/12/08 20:03:55;;;;;;;36.47;6.70;;;;;;;;;;5060994;28;20172;-69
2021/12/08 20:06:21;;;;;;;25.40;6.90;;;;;;;;;;5049833;28;20029;-67
2021/12/08 20:08:47;;;;;;;29.05;6.72;;;;;;;;;;5048748;28;20332;-67
2021/12/08 20:11:16;;;;;;;29.52;8.80;;;;;;;;;;5053178;28;20040;-68
2021/12/08 20:13:43;;;;;;;23.25;5.35;;;;;;;;;;5049557;28;20028;-67
2021/12/08 20:16:09;;;;;;;27.95;7.13;;;;;;;;;;5054930;28;20025;-68
2021/12/08 20:18:35;;;;;;;16.67;4.03;;;;;;;;;;5049172;28;20040;-69
2021/12/08 20:21:04;;;;;;;32.83;12.02;;;;;;;;;;5049935;28;20086;-68
2021/12/08 20:23:34;;;;;;;15.32;4.22;;;;;;;;;;5049421;28;20106;-69
2021/12/08 20:26:00;;;;;;;23.25;6.60;;;;;;;;;;5051859;28;20511;-69
2021/12/08 20:28:27;;;;;;;29.50;7.72;;;;;;;;;;5051712;28;20167;-69
2021/12/08 20:30:53;;;;;;;32.97;9.48;;;;;;;;;;5048583;28;20507;-69
2021/12/08 20:33:19;;;;;;;20.55;7.28;;;;;;;;;;5049002;28;20484;-69
2021/12/08 20:35:46;;;;;;;28.10;7.28;;;;;;;;;;5049790;28;20028;-69
2021/12/08 20:38:12;;;;;;;17.58;5.75;;;;;;;;;;5051320;28;20029;-68
2021/12/08 20:40:39;;;;;;;18.17;5.78;;;;;;;;;;5049223;28;20094;-69
2021/12/08 20:43:05;;;;;;;32.80;12.05;;;;;;;;;;5049059;28;20025;-69
2021/12/08 20:45:32;;;;;;;25.80;9.27;;;;;;;;;;5048360;28;20495;-68
2021/12/08 20:47:58;;;;;;;18.10;5.90;;;;;;;;;;5049137;28;20086;-69
2021/12/08 20:50:25;;;;;;;10.73;5.57;;;;;;;;;;5049041;28;20032;-68
2021/12/08 20:52:51;;;;;;;26.15;6.55;;;;;;;;;;5049886;28;20435;-69
2021/12/08 20:55:18;;;;;;;16.20;4.15;;;;;;;;;;5048866;28;20033;-69
2021/12/08 20:57:45;;;;;;;18.50;5.35;;;;;;;;;;5048457;28;20119;-69
2021/12/08 21:00:16;;;;;;;17.52;5.60;;;;;;;;;;5050544;28;20027;-69
2021/12/08 21:02:43;;;;;;;21.10;5.03;;;;;;;;;;5053703;28;20463;-69
2021/12/08 21:05:09;;;;;;;15.70;4.68;;;;;;;;;;5048408;28;20021;-68
2021/12/08 21:07:35;;;;;;;18.63;5.00;;;;;;;;;;5047986;28;20486;-68
2021/12/08 21:10:03;;;;;;;22.92;5.07;;;;;;;;;;5053435;28;20476;-68
2021/12/08 21:12:30;;;;;;;22.20;3.83;;;;;;;;;;5053724;28;20021;-68
2021/12/08 21:14:57;;;;;;;18.40;3.72;;;;;;;;;;5047517;28;20171;-69
2021/12/08 21:17:23;;;;;;;11.55;4.20;;;;;;;;;;5042742;28;20566;-69
2021/12/08 21:19:49;;;;;;;16.55;2.72;;;;;;;;;;5046547;28;20419;-68
2021/12/08 21:22:16;;;;;;;17.33;4.05;;;;;;;;;;5049898;28;20111;-69
2021/12/08 21:24:43;;;;;;;21.08;4.85;;;;;;;;;;5049397;28;20480;-68
2021/12/08 21:27:09;;;;;;;26.17;7.53;;;;;;;;;;5050002;28;20388;-68
2021/12/08 21:29:36;;;;;;;29.98;5.65;;;;;;;;;;5050070;28;20441;-68
2021/12/08 21:32:02;;;;;;;20.48;3.28;;;;;;;;;;5062034;28;20519;-68
2021/12/08 21:34:29;;;;;;;21.13;4.47;;;;;;;;;;5066866;28;20028;-68
2021/12/08 21:36:55;;;;;;;22.02;4.63;;;;;;;;;;5047552;28;20236;-68
2021/12/08 21:39:22;;;;;;;24.13;5.05;;;;;;;;;;5049581;28;20029;-68
2021/12/08 21:41:48;;;;;;;16.35;3.03;;;;;;;;;;5049367;28;20558;-69
2021/12/08 21:44:14;;;;;;;22.08;3.35;;;;;;;;;;5048612;28;20025;-68
2021/12/08 21:46:40;;;;;;;22.38;4.57;;;;;;;;;;5049398;28;20049;-68
2021/12/08 21:49:07;;;;;;;19.08;7.03;;;;;;;;;;5049580;28;20635;-68
2021/12/08 21:51:33;;;;;;;22.30;5.15;;;;;;;;;;5049642;28;20018;-68
2021/12/08 21:54:00;;;;;;;17.85;5.10;;;;;;;;;;5049531;28;20032;-68
2021/12/08 21:56:26;;;;;;;24.88;5.63;;;;;;;;;;5049778;28;20067;-68
2021/12/08 21:58:52;;;;;;;33.63;12.18;;;;;;;;;;5048700;28;20099;-68
2021/12/08 22:01:19;;;;;;;29.40;8.00;;;;;;;;;;5048276;28;20025;-68
2021/12/08 22:03:45;;;;;;;31.23;13.18;;;;;;;;;;5049401;28;20405;-68
2021/12/08 22:06:11;;;;;;;18.38;6.80;;;;;;;;;;5049537;28;20083;-68
2021/12/08 22:08:37;;;;;;;34.03;5.07;;;;;;;;;;5056800;28;20036;-69
2021/12/08 22:11:04;;;;;;;33.80;3.92;;;;;;;;;;5053870;28;20039;-69
2021/12/08 22:13:30;;;;;;;27.27;6.35;;;;;;;;;;5050450;28;20151;-68
2021/12/08 22:15:56;;;;;;;34.28;6.57;;;;;;;;;;5050689;28;20028;-69
2021/12/08 22:18:23;;;;;;;30.27;4.82;;;;;;;;;;5052538;28;20478;-69
2021/12/08 22:20:50;;;;;;;27.25;4.28;;;;;;;;;;5064005;28;20032;-68
2021/12/08 22:23:16;;;;;;;24.10;6.78;;;;;;;;;;5069341;28;20025;-69
2021/12/08 22:25:43;;;;;;;21.50;4.30;;;;;;;;;;5053845;28;20025;-68
2021/12/08 22:28:09;;;;;;;17.85;4.82;;;;;;;;;;5049097;28;20132;-68
2021/12/08 22:30:35;;;;;;;26.45;5.88;;;;;;;;;;5061267;28;20437;-68
2021/12/08 22:33:01;;;;;;;28.42;6.72;;;;;;;;;;5071867;28;20017;-68
2021/12/08 22:35:27;;;;;;;25.20;5.65;;;;;;;;;;5071256;28;20017;-69
2021/12/08 22:37:53;;;;;;;27.95;5.45;;;;;;;;;;5070261;28;20532;-68
2021/12/08 22:40:22;;;;;;;26.75;7.15;;;;;;;;;;5072760;28;20051;-69
2021/12/08 22:42:49;;;;;;;23.92;4.68;;;;;;;;;;5070670;28;20483;-69
2021/12/08 22:45:15;;;;;;;24.00;5.25;;;;;;;;;;5072420;28;20059;-69
2021/12/08 22:47:42;;;;;;;26.08;5.32;;;;;;;;;;5067210;28;20472;-69
2021/12/08 22:50:09;;;;;;;26.83;4.70;;;;;;;;;;5052771;28;20020;-68
2021/12/08 22:52:35;;;;;;;33.92;5.18;;;;;;;;;;5055856;28;20101;-68
2021/12/08 22:55:01;;;;;;;32.08;4.97;;;;;;;;;;5057694;28;20032;-68
2021/12/08 22:57:28;;;;;;;26.02;4.75;;;;;;;;;;5065824;28;20052;-69
2021/12/08 22:59:54;;;;;;;25.45;4.53;;;;;;;;;;5062916;28;20229;-68
2021/12/08 23:02:20;;;;;;;18.65;5.20;;;;;;;;;;5052564;28;20024;-69
2021/12/08 23:04:47;;;;;;;26.65;4.15;;;;;;;;;;5052475;28;20037;-68
2021/12/08 23:07:13;;;;;;;19.60;3.67;;;;;;;;;;5057308;28;20367;-69
2021/12/08 23:09:39;;;;;;;14.18;3.70;;;;;;;;;;5054274;28;20424;-69
2021/12/08 23:12:06;;;;;;;23.85;4.07;;;;;;;;;;5052283;28;20021;-69
2021/12/08 23:14:32;;;;;;;29.15;3.80;;;;;;;;;;5051827;28;20029;-69
2021/12/08 23:16:59;;;;;;;23.38;5.05;;;;;;;;;;5051430;28;20074;-69
2021/12/08 23:19:28;;;;;;;20.10;4.22;;;;;;;;;;5051207;28;20498;-68
2021/12/08 23:21:54;;;;;;;21.92;4.60;;;;;;;;;;5050704;28;20017;-69
2021/12/08 23:24:20;;;;;;;19.52;3.63;;;;;;;;;;5054038;28;20025;-69
2021/12/08 23:26:46;;;;;;;27.33;3.90;;;;;;;;;;5053977;28;20493;-68
2021/12/08 23:29:13;;;;;;;21.38;4.68;;;;;;;;;;5052977;28;20025;-70
2021/12/08 23:31:39;;;;;;;27.20;5.70;;;;;;;;;;5053985;28;20833;-68
